Time;durP1;ratioP1;P1;durP2;ratioP2;P2;SDS_P1;SDS_P2;PMS_P1;PMS_P2;Temp;Humidity;BMP_temperature;BMP_pressure;BME280_temperature;BME280_humidity;BME280_pressure;Samples;Min_cycle;Max_cycle;Signal;HPM_P1;HPM_P2
2024/03/16 00:10:15;;;;;;;9.80;7.40;;;;;;;12.34;85.12;99882.48;127879;1281;128589;-68
2024/03/16 00:14:19;;;;;;;9.10;6.10;;;;;;;12.33;85.34;99884.88;127408;1284;114901;-67
2024/03/16 00:18:11;;;;;;;9.10;6.20;;;;;;;12.30;85.66;99880.02;121907;1301;5602469;-68
2024/03/16 00:30:34;;;;;;;10.00;7.10;;;;;;;12.29;85.63;99875.98;126161;1300;638628;-69
2024/03/16 00:34:36;;;;;;;9.40;6.60;;;;;;;12.26;86.00;99876.51;128486;1278;128346;-69
2024/03/16 00:38:41;;;;;;;9.50;5.60;;;;;;;12.24;86.32;99878.59;127210;1289;115043;-69
2024/03/16 00:42:41;;;;;;;7.70;6.40;;;;;;;12.22;86.47;99873.17;122313;1295;5423850;-68
2024/03/16 00:46:36;;;;;;;;;;;;;;;;;;;;;
2024/03/16 00:50:36;;;;;;;;;;;;;;;;;;;;;
2024/03/16 00:55:03;;;;;;;9.50;7.30;;;;;;;12.19;86.66;99859.21;126003;1297;636098;-68
2024/03/16 00:59:05;;;;;;;8.80;6.40;;;;;;;12.12;86.52;99857.89;127937;1300;128572;-70
2024/03/16 01:03:09;;;;;;;8.20;6.90;;;;;;;12.05;86.44;99859.75;126359;1293;114969;-69
2024/03/16 01:07:09;;;;;;;8.10;6.60;;;;;;;11.98;86.43;99861.39;122033;1296;5419769;-69
2024/03/16 01:11:10;;;;;;;9.40;6.60;;;;;;;11.92;86.28;99852.66;125375;1315;114987;-67
2024/03/16 01:15:02;;;;;;;9.50;6.70;;;;;;;11.86;86.58;99844.77;124384;1313;115258;-69
2024/03/16 01:23:20;;;;;;;8.60;6.00;;;;;;;11.75;86.36;99837.08;126072;1298;639565;-68
2024/03/16 01:27:15;;;;;;;9.50;7.10;;;;;;;11.62;86.01;99834.66;128580;1294;128830;-68
2024/03/16 01:31:18;;;;;;;10.10;7.30;;;;;;;11.48;85.85;99828.30;127764;1288;114942;-67
2024/03/16 01:35:10;;;;;;;9.90;7.60;;;;;;;11.35;86.15;99829.09;122303;1291;5631802;-69
2024/03/16 01:39:12;;;;;;;10.00;7.00;;;;;;;11.20;85.80;99826.56;126571;1310;114885;-67
2024/03/16 01:42:54;;;;;;;;;;;;;;;;;;;;;
2024/03/16 01:46:55;;;;;;;;;;;;;;;;;;;;;
2024/03/16 01:55:30;;;;;;;12.20;9.60;;;;;;;10.61;86.93;99834.84;126290;1306;641490;-69
2024/03/16 01:59:26;;;;;;;;;;;;;;;;;;;;;
2024/03/16 02:03:26;;;;;;;11.50;8.10;;;;;;;10.44;87.26;99838.29;127418;1303;114940;-68
2024/03/16 02:11:52;;;;;;;10.60;7.40;;;;;;;10.46;87.93;99835.32;125596;1308;638205;-68
2024/03/16 02:15:55;;;;;;;11.40;8.00;;;;;;;10.43;87.79;99832.98;128834;1273;128621;-69
2024/03/16 02:19:53;;;;;;;;;;;;;;;;;;;;;
2024/03/16 02:23:57;;;;;;;9.70;7.50;;;;;;;10.30;88.08;99839.20;122649;1307;5433241;-70
2024/03/16 02:27:56;;;;;;;;;;;;;;;;;;;;;
2024/03/16 02:31:49;;;;;;;;;;;;;;;;;;;;;
2024/03/16 02:36:24;;;;;;;12.10;8.60;;;;;;;10.01;87.71;99849.84;125588;1302;640983;-69
2024/03/16 02:40:26;;;;;;;13.30;9.80;;;;;;;9.88;87.78;99859.88;127662;1284;128062;-69
2024/03/16 02:44:06;;;;;;;;;;;;;;;;;;;;;
2024/03/16 02:48:45;;;;;;;11.60;9.30;;;;;;;9.73;88.34;99861.77;125795;1299;640588;-67
2024/03/16 02:52:45;;;;;;;14.80;9.90;;;;;;;9.61;88.42;99857.58;127876;1281;128659;-69
2024/03/16 02:56:38;;;;;;;17.50;11.60;;;;;;;9.52;88.81;99857.16;126447;1290;114899;-68
2024/03/16 03:00:37;;;;;;;15.40;11.00;;;;;;;9.43;88.93;99862.94;122096;1301;5519428;-67
2024/03/16 03:04:39;;;;;;;17.80;12.30;;;;;;;9.43;89.70;99863.88;126518;1309;114879;-68
2024/03/16 03:08:41;;;;;;;15.60;12.20;;;;;;;9.46;90.29;99869.05;125432;1321;115292;-66
2024/03/16 03:12:34;;;;;;;;;;;;;;;;;;;;;
2024/03/16 03:17:00;;;;;;;;;;;;;;;;;;;;;
2024/03/16 03:21:03;;;;;;;15.60;10.40;;;;;;;9.66;91.37;99868.72;128048;1275;128784;-67
2024/03/16 03:25:08;;;;;;;16.80;10.50;;;;;;;9.72;91.56;99867.85;127225;1304;115021;-67
2024/03/16 03:29:08;;;;;;;15.70;11.20;;;;;;;9.80;91.78;99867.47;122498;1290;5513124;-67
2024/03/16 03:33:10;;;;;;;17.60;12.10;;;;;;;9.87;92.04;99866.73;125604;1311;114966;-67
2024/03/16 03:41:37;;;;;;;;;;;;;;;;;;;;;
2024/03/16 03:53:54;;;;;;;14.90;10.70;;;;;;;10.18;92.32;99865.55;123351;1302;5696628;-68
2024/03/16 03:57:42;;;;;;;;;;;;;;;;;;;;;
2024/03/16 04:01:43;;;;;;;;;;;;;;;;;;;;;
2024/03/16 04:05:44;;;;;;;13.90;9.70;;;;;;;10.24;91.95;99868.15;125775;1302;116502;-67
2024/03/16 04:09:38;;;;;;;;;;;;;;;;;;;;;
2024/03/16 04:17:51;;;;;;;11.70;10.40;;;;;;;10.11;91.25;99873.85;125874;1296;638807;-68
2024/03/16 04:21:40;;;;;;;;;;;;;;;;;;;;;
2024/03/16 04:25:35;;;;;;;;;;;;;;;;;;;;;
2024/03/16 04:33:41;;;;;;;13.70;9.20;;;;;;;9.73;90.53;99886.91;121501;1304;114902;-67
2024/03/16 04:37:40;;;;;;;;;;;;;;;;;;;;;
2024/03/16 04:42:14;;;;;;;11.40;8.40;;;;;;;9.49;90.41;99880.48;125662;1299;638600;-68
2024/03/16 04:50:44;;;;;;;11.00;9.20;;;;;;;9.29;90.40;99886.32;125883;1299;639608;-66
2024/03/16 04:54:45;;;;;;;10.10;7.70;;;;;;;9.16;90.11;99889.11;127586;1299;128533;-68
2024/03/16 05:02:48;;;;;;;12.80;8.00;;;;;;;8.96;90.61;99893.31;122175;1294;5415414;-67
2024/03/16 05:06:47;;;;;;;11.50;8.40;;;;;;;8.89;90.83;99902.91;126102;1290;114895;-67
2024/03/16 05:10:40;;;;;;;10.00;7.80;;;;;;;8.82;90.94;99904.28;125605;1296;114962;-66
2024/03/16 05:14:40;;;;;;;9.40;7.90;;;;;;;8.76;91.23;99903.33;125529;1319;114946;-67
2024/03/16 05:18:40;;;;;;;;;;;;;;;;;;;;;
2024/03/16 05:22:42;;;;;;;11.30;8.40;;;;;;;8.78;91.85;99910.05;125126;1321;115341;-68
2024/03/16 05:31:16;;;;;;;11.30;8.20;;;;;;;8.94;92.37;99907.64;125595;1298;640919;-68
2024/03/16 05:35:11;;;;;;;10.00;8.50;;;;;;;8.98;92.34;99915.64;127732;1303;128860;-67
2024/03/16 05:39:14;;;;;;;;;;;;;;;;;;;;;
2024/03/16 05:43:08;;;;;;;;;;;;;;;;;;;;;
2024/03/16 05:47:10;;;;;;;11.50;9.00;;;;;;;9.20;92.60;99928.98;125111;1325;114979;-69
2024/03/16 05:50:49;;;;;;;;;;;;;;;;;;;;;
2024/03/16 05:59:18;;;;;;;13.00;9.20;;;;;;;9.46;92.59;99939.48;127383;1290;128918;-67
2024/03/16 06:03:19;;;;;;;10.00;7.60;;;;;;;9.54;92.74;99944.20;125968;1318;114905;-68
2024/03/16 06:07:19;;;;;;;;;;;;;;;;;;;;;
2024/03/16 06:11:54;;;;;;;12.50;10.50;;;;;;;9.78;92.64;99942.69;125468;1299;638659;-67
2024/03/16 06:15:59;;;;;;;12.50;10.20;;;;;;;9.94;93.11;99947.00;126714;1308;129722;-67
2024/03/16 06:19:50;;;;;;;;;;;;;;;;;;;;;
2024/03/16 06:23:53;;;;;;;15.10;11.60;;;;;;;10.22;93.21;99952.81;121727;1296;5529996;-68
2024/03/16 06:32:28;;;;;;;11.10;9.40;;;;;;;10.49;93.00;99957.45;125603;1300;638746;-68
2024/03/16 06:36:20;;;;;;;11.80;10.50;;;;;;;10.63;93.37;99957.78;127318;1297;128368;-68
2024/03/16 06:40:21;;;;;;;;;;;;;;;;;;;;;
2024/03/16 06:44:18;;;;;;;11.10;9.50;;;;;;;10.89;93.42;99959.95;122036;1293;5610235;-67
2024/03/16 06:48:18;;;;;;;11.30;8.70;;;;;;;10.98;92.66;99961.21;125865;1318;115818;-68
2024/03/16 06:52:24;;;;;;;9.70;8.70;;;;;;;11.10;92.68;99963.39;125553;1318;114941;-68
2024/03/16 07:00:55;;;;;;;10.30;8.60;;;;;;;11.32;92.60;99969.47;125502;1311;638446;-67
2024/03/16 07:04:46;;;;;;;11.80;9.30;;;;;;;11.35;92.03;99977.46;126937;1304;128760;-68
2024/03/16 07:08:43;;;;;;;9.70;8.00;;;;;;;11.51;92.17;99982.14;126836;1300;114892;-68
2024/03/16 07:12:43;;;;;;;10.50;9.00;;;;;;;11.71;92.20;99974.86;121928;1292;5597078;-68
2024/03/16 07:20:13;;;;;;;;;;;;;;;;;;;;;
2024/03/16 07:28:48;;;;;;;9.50;7.70;;;;;;;12.67;91.54;99982.84;125655;1302;639367;-69
2024/03/16 07:32:43;;;;;;;8.60;7.00;;;;;;;12.91;90.84;99989.36;128646;1277;129010;-68
2024/03/16 07:36:47;;;;;;;8.00;6.10;;;;;;;13.28;90.77;99995.38;128083;1280;115126;-68
2024/03/16 07:40:38;;;;;;;7.00;5.50;;;;;;;13.51;89.92;99993.54;122912;1299;5406774;-69
2024/03/16 07:49:13;;;;;;;7.00;4.90;;;;;;;14.33;88.70;99993.73;125574;1303;638792;-70
2024/03/16 07:53:17;;;;;;;7.40;5.40;;;;;;;14.67;87.60;99991.93;127606;1284;128900;-70
2024/03/16 07:57:18;;;;;;;4.80;3.10;;;;;;;15.29;87.24;99985.46;126414;1304;115376;-68
2024/03/16 08:05:53;;;;;;;3.20;2.00;;;;;;;16.72;84.86;99983.14;126148;1293;642718;-70
2024/03/16 08:09:56;;;;;;;3.30;2.00;;;;;;;17.44;83.09;99984.67;127629;1284;128439;-69
2024/03/16 08:14:00;;;;;;;2.40;1.50;;;;;;;18.23;82.19;99981.15;126280;1290;114838;-69
2024/03/16 08:18:04;;;;;;;3.10;1.20;;;;;;;18.84;80.14;99976.14;122129;1298;5439393;-70
2024/03/16 08:21:55;;;;;;;;;;;;;;;;;;;;;
2024/03/16 08:26:23;;;;;;;3.40;1.20;;;;;;;19.42;76.93;99977.48;126493;1298;640463;-71
2024/03/16 08:30:25;;;;;;;4.30;1.90;;;;;;;19.33;74.91;99983.96;128823;1270;127650;-72
2024/03/16 08:34:27;;;;;;;2.60;1.40;;;;;;;19.34;74.02;99981.69;128141;1278;114801;-72
2024/03/16 08:38:30;;;;;;;2.90;1.50;;;;;;;19.49;73.14;99978.32;123526;1284;5443843;-71
2024/03/16 08:42:31;;;;;;;2.70;1.40;;;;;;;19.56;72.61;99975.66;126139;1298;114897;-72
2024/03/16 08:51:06;;;;;;;2.80;2.00;;;;;;;19.71;70.70;99973.92;126615;1291;636666;-72
2024/03/16 08:55:01;;;;;;;;;;;;;;;;;;;;;
2024/03/16 08:59:03;;;;;;;6.10;3.10;;;;;;;19.73;69.50;99980.55;126378;1296;115057;-72
2024/03/16 09:02:54;;;;;;;4.30;2.60;;;;;;;19.73;68.61;99975.14;121475;1305;5524355;-71
2024/03/16 09:06:37;;;;;;;;;;;;;;;;;;;;;
2024/03/16 09:10:10;;;;;;;3.10;1.90;;;;;;;19.79;68.07;99972.25;125065;1311;114909;-71
2024/03/16 09:18:23;;;;;;;;;;;;;;;;;;;;;
2024/03/16 09:21:55;;;;;;;;;;;;;;;;;;;;;
2024/03/16 09:25:53;;;;;;;;;;;;;;;;;;;;;
2024/03/16 09:30:01;;;;;;;2.30;1.40;;;;;;;20.24;63.98;99979.91;127464;1289;115176;-71
2024/03/16 09:34:04;;;;;;;1.90;1.10;;;;;;;20.26;63.42;99983.35;124404;1277;114920;-68
2024/03/16 09:38:07;;;;;;;2.90;1.50;;;;;;;20.20;62.32;99982.81;127763;1282;114768;-68
2024/03/16 09:42:00;;;;;;;;;;;;;;;;;;;;;
2024/03/16 09:50:26;;;;;;;;;;;;;;;;;;;;;
2024/03/16 09:54:25;;;;;;;4.80;1.30;;;;;;;19.58;60.83;99988.73;127494;1286;128707;-69
2024/03/16 09:58:29;;;;;;;2.10;1.40;;;;;;;19.50;61.45;99985.63;126420;1295;114829;-69
2024/03/16 10:02:29;;;;;;;2.50;1.20;;;;;;;19.39;60.96;99982.84;121401;1319;5491137;-69
2024/03/16 10:06:30;;;;;;;;;;;;;;;;;;;;;
2024/03/16 10:09:37;;;;;;;1.90;1.00;;;;;;;19.38;61.28;99980.77;123616;1321;114856;-69
2024/03/16 10:14:07;;;;;;;3.70;1.40;;;;;;;19.48;60.51;99978.23;126495;1295;639195;-68
2024/03/16 10:18:00;;;;;;;;;;;;;;;;;;;;;
2024/03/16 10:22:05;;;;;;;2.60;1.60;;;;;;;19.08;59.32;99995.27;128067;1289;114891;-69
2024/03/16 10:26:02;;;;;;;1.60;1.20;;;;;;;18.69;59.10;99998.67;122479;1291;5457344;-69
2024/03/16 10:33:55;;;;;;;4.20;2.60;;;;;;;18.33;59.99;99992.39;125464;1301;115000;-68
2024/03/16 10:37:48;;;;;;;;;;;;;;;;;;;;;
2024/03/16 10:42:15;;;;;;;1.50;0.60;;;;;;;18.52;59.72;99976.23;125921;1299;637231;-70
2024/03/16 10:46:16;;;;;;;0.90;0.30;;;;;;;18.65;59.32;99975.08;128463;1280;128038;-69
2024/03/16 10:50:09;;;;;;;1.90;0.90;;;;;;;18.83;58.86;99975.89;128613;1280;114934;-69
2024/03/16 10:54:10;;;;;;;1.80;0.60;;;;;;;19.08;58.71;99974.61;124088;1283;5511812;-69
2024/03/16 10:58:02;;;;;;;2.00;0.90;;;;;;;19.24;58.03;99973.32;126305;1296;114937;-69
2024/03/16 11:02:04;;;;;;;;;;;;;;;;;;;;;
2024/03/16 11:06:06;;;;;;;;;;;;;;;;;;;;;
2024/03/16 11:14:22;;;;;;;3.90;0.90;;;;;;;19.54;56.64;99972.91;125396;1312;636132;-69
2024/03/16 11:18:30;;;;;;;2.20;1.10;;;;;;;19.57;56.62;99971.88;128715;1269;128679;-69
2024/03/16 11:22:37;;;;;;;2.50;0.70;;;;;;;19.71;56.59;99971.20;127707;1285;114745;-69
2024/03/16 11:26:38;;;;;;;2.60;0.70;;;;;;;19.93;56.35;99963.56;122305;1306;5417867;-69
2024/03/16 11:35:13;;;;;;;3.40;1.10;;;;;;;20.27;55.69;99955.80;125588;1304;639433;-69
2024/03/16 11:39:16;;;;;;;2.20;0.70;;;;;;;20.23;54.45;99956.98;127738;1279;127980;-69
2024/03/16 11:43:17;;;;;;;2.10;0.70;;;;;;;20.01;54.10;99958.43;127111;1285;115009;-69
2024/03/16 11:51:19;;;;;;;;;;;;;;;;;;;;;
2024/03/16 11:55:52;;;;;;;2.70;0.80;;;;;;;19.79;54.02;99953.80;125894;1301;643010;-69
2024/03/16 11:59:52;;;;;;;;;;;;;;;;;;;;;
2024/03/16 12:03:48;;;;;;;;;;;;;;;;;;;;;
2024/03/16 12:07:35;;;;;;;3.30;0.80;;;;;;;19.64;53.55;99950.60;121782;1304;5489779;-69
2024/03/16 12:15:17;;;;;;;1.60;0.60;;;;;;;19.42;53.27;99943.29;125545;1311;638664;-70
2024/03/16 12:27:59;;;;;;;2.60;1.20;;;;;;;19.70;52.82;99931.09;125460;1311;637028;-70
2024/03/16 12:31:48;;;;;;;1.90;0.50;;;;;;;19.89;52.54;99929.79;127892;1284;128656;-67
2024/03/16 12:39:54;;;;;;;1.40;0.40;;;;;;;20.17;52.35;99925.96;122200;1313;5534156;-68
2024/03/16 12:43:49;;;;;;;;;;;;;;;;;;;;;
2024/03/16 12:47:44;;;;;;;4.20;1.00;;;;;;;20.51;51.52;99918.35;125183;1311;115003;-68
2024/03/16 12:51:42;;;;;;;;;;;;;;;;;;;;;
2024/03/16 13:00:08;;;;;;;;;;;;;;;;;;;;;
2024/03/16 13:04:12;;;;;;;2.30;0.60;;;;;;;20.95;50.28;99921.13;127963;1288;128615;-69
2024/03/16 13:08:07;;;;;;;;;;;;;;;;;;;;;
2024/03/16 13:16:17;;;;;;;;;;;;;;;;;;;;;
2024/03/16 13:20:20;;;;;;;3.00;0.70;;;;;;;19.43;50.32;99953.16;125655;1323;114857;-68
2024/03/16 13:24:21;;;;;;;;;;;;;;;;;;;;;
2024/03/16 13:29:20;;;;;;;1.60;0.50;;;;;;;18.45;53.49;99973.41;125615;1305;640722;-69
2024/03/16 13:32:58;;;;;;;1.80;0.40;;;;;;;18.00;54.54;99965.06;126631;1304;128965;-69
2024/03/16 13:40:54;;;;;;;2.80;1.00;;;;;;;17.63;56.46;99965.95;121289;1302;5758832;-68
2024/03/16 13:44:56;;;;;;;1.80;1.00;;;;;;;17.53;57.22;99964.45;124607;1329;115278;-69
2024/03/16 13:48:56;;;;;;;;;;;;;;;;;;;;;
2024/03/16 13:53:30;;;;;;;4.40;1.30;;;;;;;17.47;57.91;99958.86;125616;1301;638646;-70
2024/03/16 13:57:31;;;;;;;3.10;1.30;;;;;;;17.30;58.67;99958.11;127485;1296;129050;-69
2024/03/16 14:01:46;;;;;;;2.10;1.00;;;;;;;17.16;59.44;99961.89;126895;1292;114875;-70
2024/03/16 14:09:47;;;;;;;3.50;1.30;;;;;;;17.24;60.66;99949.22;124914;1326;114901;-70
2024/03/16 14:18:23;;;;;;;2.80;1.40;;;;;;;17.23;60.71;99948.95;125563;1303;639033;-69
2024/03/16 14:22:26;;;;;;;2.70;1.80;;;;;;;17.17;60.62;99943.11;126940;1307;129008;-69
2024/03/16 14:26:27;;;;;;;2.80;1.70;;;;;;;17.17;60.62;99941.46;125563;1298;114941;-68
2024/03/16 14:30:26;;;;;;;;;;;;;;;;;;;;;
2024/03/16 14:35:01;;;;;;;2.80;1.70;;;;;;;17.32;60.41;99935.16;125654;1300;638559;-69
2024/03/16 14:38:46;;;;;;;3.10;1.80;;;;;;;17.19;60.35;99939.47;128476;1279;129587;-69
2024/03/16 14:42:49;;;;;;;1.50;1.10;;;;;;;17.12;60.17;99944.21;126652;1305;117858;-69
2024/03/16 14:46:44;;;;;;;2.50;0.70;;;;;;;17.03;59.33;99942.95;121871;1317;5588187;-70
2024/03/16 14:55:18;;;;;;;1.30;0.70;;;;;;;16.73;58.39;99946.67;125674;1310;639579;-69
2024/03/16 14:59:19;;;;;;;;;;;;;;;;;;;;;
2024/03/16 15:03:27;;;;;;;1.50;0.70;;;;;;;16.35;58.15;99950.94;126226;1304;115049;-68
2024/03/16 15:07:26;;;;;;;;;;;;;;;;;;;;;
2024/03/16 15:15:46;;;;;;;2.10;0.80;;;;;;;15.89;57.86;99972.13;125405;1302;637881;-69
2024/03/16 15:19:49;;;;;;;1.80;1.00;;;;;;;15.74;58.08;99976.11;126699;1294;128671;-69
2024/03/16 15:23:51;;;;;;;2.00;0.70;;;;;;;15.67;58.55;99988.22;125468;1306;114871;-68
2024/03/16 15:32:26;;;;;;;2.50;1.00;;;;;;;15.46;59.39;99992.11;126185;1298;638586;-68
2024/03/16 15:36:29;;;;;;;1.70;0.80;;;;;;;15.25;59.87;99990.29;127810;1283;128104;-68
2024/03/16 15:40:28;;;;;;;;;;;;;;;;;;;;;
2024/03/16 15:44:30;;;;;;;2.50;1.00;;;;;;;14.96;60.73;100000.07;122042;1302;5592982;-68
2024/03/16 15:52:46;;;;;;;2.20;1.20;;;;;;;14.86;61.49;100004.26;125945;1311;638616;-68
2024/03/16 16:00:51;;;;;;;4.50;1.20;;;;;;;14.77;62.09;100013.31;126748;1289;114889;-68
2024/03/16 16:04:55;;;;;;;4.50;1.40;;;;;;;14.71;62.25;100012.84;121739;1299;5705857;-68
2024/03/16 16:08:56;;;;;;;3.70;1.90;;;;;;;14.63;62.43;100013.35;124505;1315;114911;-69
2024/03/16 16:17:30;;;;;;;4.10;1.90;;;;;;;14.40;62.82;100014.09;125712;1298;637867;-68
2024/03/16 16:21:33;;;;;;;3.40;1.90;;;;;;;14.19;62.97;100022.73;127966;1287;128626;-68
2024/03/16 16:25:35;;;;;;;3.70;1.60;;;;;;;14.01;63.22;100032.23;127318;1287;115038;-68
2024/03/16 16:29:39;;;;;;;2.40;1.60;;;;;;;13.83;63.60;100035.79;122404;1306;5513792;-68
2024/03/16 16:33:41;;;;;;;3.10;1.90;;;;;;;13.62;63.90;100037.72;125311;1323;114933;-68
2024/03/16 16:37:42;;;;;;;4.50;1.90;;;;;;;13.41;64.29;100041.94;124776;1326;114968;-67
2024/03/16 16:46:18;;;;;;;4.80;2.40;;;;;;;13.00;65.10;100045.78;125915;1311;637018;-68
2024/03/16 16:50:18;;;;;;;;;;;;;;;;;;;;;
2024/03/16 16:54:20;;;;;;;8.00;5.40;;;;;;;12.58;65.75;100065.29;125825;1307;114844;-68
2024/03/16 16:58:21;;;;;;;7.20;5.00;;;;;;;12.40;66.38;100069.79;121783;1296;5615502;-68
2024/03/16 17:02:23;;;;;;;4.80;2.80;;;;;;;12.20;66.77;100076.34;124456;1311;115573;-68
2024/03/16 17:06:16;;;;;;;;;;;;;;;;;;;;;
2024/03/16 17:14:47;;;;;;;4.80;2.70;;;;;;;11.68;67.95;100095.59;126175;1295;640588;-68
2024/03/16 17:18:51;;;;;;;6.40;3.20;;;;;;;11.51;68.54;100102.28;128691;1271;129048;-68
2024/03/16 17:22:52;;;;;;;7.60;3.90;;;;;;;11.39;68.90;100109.39;127467;1295;114824;-69
2024/03/16 17:26:46;;;;;;;8.10;3.30;;;;;;;11.30;69.74;100110.98;122043;1310;5410957;-68
2024/03/16 17:30:48;;;;;;;6.00;3.00;;;;;;;11.22;69.94;100111.44;124859;1310;114960;-68
2024/03/16 17:39:43;;;;;;;7.00;3.90;;;;;;;11.14;70.90;100124.55;125837;1315;636418;-68
2024/03/16 17:43:17;;;;;;;6.50;3.40;;;;;;;11.14;71.14;100136.69;127395;1302;127996;-67
2024/03/16 17:47:12;;;;;;;5.20;3.00;;;;;;;11.17;71.94;100150.81;126229;1297;114764;-68
2024/03/16 17:51:17;;;;;;;3.20;1.90;;;;;;;11.19;72.27;100167.34;122048;1290;5478420;-68
2024/03/16 17:55:01;;;;;;;3.20;1.60;;;;;;;11.22;72.27;100179.19;125353;1317;114958;-67
2024/03/16 18:03:38;;;;;;;2.80;1.50;;;;;;;11.23;72.44;100204.48;125629;1302;637537;-67
2024/03/16 18:07:40;;;;;;;3.40;2.00;;;;;;;11.20;73.24;100219.53;126753;1306;128742;-67
2024/03/16 18:11:42;;;;;;;2.70;1.20;;;;;;;11.16;72.98;100228.48;125373;1299;114968;-67
2024/03/16 18:20:18;;;;;;;3.30;1.50;;;;;;;11.07;74.00;100244.85;125628;1301;638507;-68
2024/03/16 18:24:17;;;;;;;;;;;;;;;;;;;;;
2024/03/16 18:32:12;;;;;;;3.70;1.60;;;;;;;10.93;74.87;100249.34;122534;1289;5632171;-68
2024/03/16 18:36:14;;;;;;;3.20;2.00;;;;;;;10.88;75.05;100252.11;126135;1312;114906;-68
2024/03/16 18:40:06;;;;;;;;;;;;;;;;;;;;;
2024/03/16 18:44:02;;;;;;;4.60;2.00;;;;;;;10.75;75.37;100254.36;125422;1322;130013;-68
2024/03/16 18:52:13;;;;;;;;;;;;;;;;;;;;;
2024/03/16 18:56:18;;;;;;;5.30;3.00;;;;;;;10.63;75.84;100267.98;127272;1299;128902;-68
2024/03/16 19:00:22;;;;;;;3.50;2.00;;;;;;;10.57;76.14;100274.19;126642;1299;114868;-67
2024/03/16 19:04:18;;;;;;;3.50;2.50;;;;;;;10.54;76.05;100283.30;121577;1302;5596960;-67
2024/03/16 19:08:22;;;;;;;8.00;2.70;;;;;;;10.48;76.42;100291.55;124969;1323;114975;-68
2024/03/16 19:16:52;;;;;;;4.50;2.90;;;;;;;10.48;76.87;100305.34;126129;1295;638415;-67
2024/03/16 19:20:45;;;;;;;4.90;2.90;;;;;;;10.45;77.19;100311.19;127988;1279;128146;-68
2024/03/16 19:24:40;;;;;;;;;;;;;;;;;;;;;
2024/03/16 19:28:27;;;;;;;5.20;3.20;;;;;;;10.43;77.38;100321.99;123707;1278;5762815;-67
2024/03/16 19:36:27;;;;;;;4.90;3.10;;;;;;;10.37;77.97;100331.76;126033;1316;114908;-68
2024/03/16 19:44:35;;;;;;;5.60;4.00;;;;;;;10.32;77.90;100352.31;126596;1290;636017;-68
2024/03/16 19:48:29;;;;;;;5.40;3.40;;;;;;;10.28;77.88;100363.05;128476;1277;127889;-67
2024/03/16 19:51:47;;;;;;;5.30;3.90;;;;;;;10.24;77.60;100375.52;128261;1292;114849;-67
2024/03/16 19:55:03;;;;;;;4.40;3.20;;;;;;;10.23;77.77;100384.88;128632;1279;114798;-67
2024/03/16 19:58:17;;;;;;;4.80;3.30;;;;;;;10.20;77.65;100393.23;124504;1283;5605083;-66
2024/03/16 20:02:14;;;;;;;;;;;;;;;;;;;;;
2024/03/16 20:06:07;;;;;;;;;;;;;;;;;;;;;
2024/03/16 20:09:57;;;;;;;;;;;;;;;;;;;;;
2024/03/16 20:13:46;;;;;;;5.00;2.90;;;;;;;9.90;76.51;100431.33;126616;1298;114970;-68
2024/03/16 20:17:40;;;;;;;4.70;2.70;;;;;;;9.84;76.29;100437.68;126607;1295;114924;-68
2024/03/16 20:21:41;;;;;;;3.50;2.20;;;;;;;9.73;75.82;100444.04;125357;1304;114924;-68
2024/03/16 20:25:41;;;;;;;4.30;2.20;;;;;;;9.68;76.23;100459.25;124833;1329;129797;-68
2024/03/16 20:33:54;;;;;;;12.20;4.80;;;;;;;9.62;75.91;100477.52;126048;1305;638555;-67
2024/03/16 20:37:45;;;;;;;6.10;3.30;;;;;;;9.57;76.01;100485.36;128595;1273;128324;-69
2024/03/16 20:41:40;;;;;;;5.90;3.10;;;;;;;9.53;76.42;100492.48;129000;1273;114828;-68
2024/03/16 20:45:43;;;;;;;6.50;3.80;;;;;;;9.49;76.53;100501.56;127659;1294;114878;-68
2024/03/16 20:49:30;;;;;;;;;;;;;;;;;;;;;
2024/03/16 20:53:19;;;;;;;6.90;3.30;;;;;;;9.32;75.98;100523.14;125601;1303;114949;-67
2024/03/16 20:57:12;;;;;;;6.30;3.70;;;;;;;9.20;75.60;100527.02;125355;1323;115085;-67
2024/03/16 21:01:14;;;;;;;5.60;3.70;;;;;;;9.05;75.07;100532.05;125234;1308;128465;-67
2024/03/16 21:09:41;;;;;;;4.30;3.10;;;;;;;8.80;74.51;100539.79;125756;1300;635697;-69
2024/03/16 21:12:59;;;;;;;6.50;3.50;;;;;;;8.64;74.25;100546.79;127772;1286;128184;-67
2024/03/16 21:16:09;;;;;;;6.90;3.50;;;;;;;8.55;74.18;100554.98;127273;1305;114862;-67
2024/03/16 21:19:39;;;;;;;7.20;3.40;;;;;;;8.49;74.31;100563.90;127684;1289;115077;-67
2024/03/16 21:23:42;;;;;;;8.20;3.50;;;;;;;8.43;74.29;100565.54;123565;1284;5626038;-67
2024/03/16 21:27:45;;;;;;;;;;;;;;;;;;;;;
2024/03/16 21:31:31;;;;;;;;;;;;;;;;;;;;;
2024/03/16 21:35:27;;;;;;;7.50;3.10;;;;;;;8.11;74.13;100587.30;125638;1295;128399;-68
2024/03/16 21:39:17;;;;;;;;;;;;;;;;;;;;;
2024/03/16 21:43:12;;;;;;;8.20;3.20;;;;;;;7.82;73.85;100591.62;125246;1307;114960;-65
2024/03/16 21:47:05;;;;;;;;;;;;;;;;;;;;;
2024/03/16 21:50:56;;;;;;;;;;;;;;;;;;;;;
2024/03/16 21:54:49;;;;;;;13.10;6.80;;;;;;;7.37;73.78;100616.73;124876;1308;128842;-66
2024/03/16 21:58:42;;;;;;;;;;;;;;;;;;;;;
2024/03/16 22:03:15;;;;;;;;;;;;;;;;;;;;;
2024/03/16 22:07:18;;;;;;;;;;;;;;;;;;;;;
2024/03/16 22:11:13;;;;;;;7.60;2.90;;;;;;;6.97;74.28;100632.85;126288;1294;116611;-67
2024/03/16 22:15:08;;;;;;;;;;;;;;;;;;;;;
2024/03/16 22:18:54;;;;;;;7.70;3.40;;;;;;;6.92;74.32;100636.55;125403;1305;114872;-67
2024/03/16 22:27:11;;;;;;;;;;;;;;;;;;;;;
2024/03/16 22:35:15;;;;;;;;;;;;;;;;;;;;;
2024/03/16 22:39:06;;;;;;;;;;;;;;;;;;;;;
2024/03/16 22:42:53;;;;;;;;;;;;;;;;;;;;;
2024/03/16 22:46:41;;;;;;;6.20;2.40;;;;;;;6.55;73.88;100660.29;127172;1290;115009;-66
2024/03/16 22:50:37;;;;;;;5.70;2.00;;;;;;;6.51;73.92;100660.56;127132;1306;114869;-67
2024/03/16 22:54:10;;;;;;;;;;;;;;;;;;;;;
2024/03/16 22:58:24;;;;;;;8.80;2.80;;;;;;;6.42;73.89;100670.05;126129;1312;114869;-66
2024/03/16 23:02:00;;;;;;;;;;;;;;;;;;;;;
2024/03/16 23:06:02;;;;;;;6.90;2.30;;;;;;;6.36;73.85;100674.62;125063;1323;115052;-67
2024/03/16 23:09:30;;;;;;;6.00;2.00;;;;;;;6.31;73.88;100675.11;123928;1319;115490;-67
2024/03/16 23:12:45;;;;;;;5.50;2.30;;;;;;;6.26;74.06;100673.48;124841;1328;129839;-67
2024/03/16 23:16:24;;;;;;;5.50;2.40;;;;;;;6.21;73.82;100683.34;125174;1309;114924;-66
2024/03/16 23:19:59;;;;;;;;;;;;;;;;;;;;;
2024/03/16 23:23:52;;;;;;;9.00;2.10;;;;;;;6.09;74.13;100689.69;125562;1321;116729;-67
2024/03/16 23:27:41;;;;;;;5.40;1.90;;;;;;;6.02;73.91;100690.02;124615;1311;114932;-66
2024/03/16 23:31:24;;;;;;;;;;;;;;;;;;;;;
2024/03/16 23:35:01;;;;;;;4.90;2.50;;;;;;;5.93;74.35;100698.55;124079;1334;115094;-68
2024/03/16 23:39:27;;;;;;;;;;;;;;;;;;;;;
2024/03/16 23:43:05;;;;;;;6.30;2.10;;;;;;;5.83;74.36;100710.65;127650;1280;128877;-67
2024/03/16 23:46:42;;;;;;;4.10;2.20;;;;;;;5.76;74.34;100714.34;126756;1293;114864;-68
2024/03/16 23:50:30;;;;;;;5.50;2.00;;;;;;;5.68;74.53;100717.73;126679;1311;114801;-67
2024/03/16 23:57:25;;;;;;;4.90;1.80;;;;;;;5.48;74.52;100728.43;128457;1278;114957;-67
